createdAt,value
2022-09-30T00:01:04.636Z,5.10
2022-09-30T00:03:31.061Z,4.35
2022-09-30T00:06:08.118Z,3.50
2022-09-30T00:08:36.262Z,3.92
2022-09-30T00:11:08.176Z,3.92
2022-09-30T00:13:40.155Z,3.90
2022-09-30T00:16:07.746Z,5.03
2022-09-30T00:18:34.200Z,3.67
2022-09-30T00:21:01.908Z,4.97
2022-09-30T00:23:28.337Z,4.50
2022-09-30T00:26:03.821Z,4.13
2022-09-30T00:28:30.779Z,4.78
2022-09-30T00:31:02.414Z,4.97
2022-09-30T00:33:28.954Z,5.22
2022-09-30T00:35:55.381Z,4.70
2022-09-30T00:38:21.801Z,4.22
2022-09-30T00:40:48.908Z,5.38
2022-09-30T00:43:20.251Z,5.32
2022-09-30T00:45:54.703Z,5.20
2022-09-30T00:48:35.529Z,4.55
2022-09-30T00:51:05.037Z,4.82
2022-09-30T00:53:41.558Z,6.90
2022-09-30T00:56:13.291Z,5.53
2022-09-30T00:58:46.935Z,5.40
2022-09-30T01:01:15.071Z,6.97
2022-09-30T01:03:45.554Z,7.57
2022-09-30T01:06:12.288Z,6.05
2022-09-30T01:08:40.398Z,7.32
2022-09-30T01:11:08.306Z,4.82
2022-09-30T01:13:37.024Z,6.70
2022-09-30T01:16:16.004Z,5.93
2022-09-30T01:18:49.112Z,6.28
2022-09-30T01:21:43.116Z,10.18
2022-09-30T01:24:36.212Z,7.25
2022-09-30T01:27:21.368Z,5.95
2022-09-30T01:29:53.807Z,5.60
2022-09-30T01:32:54.041Z,4.63
2022-09-30T01:35:48.814Z,4.90
2022-09-30T01:38:29.270Z,4.35
2022-09-30T01:41:13.425Z,6.20
2022-09-30T01:43:55.167Z,5.35
2022-09-30T01:46:55.746Z,3.47
2022-09-30T01:49:28.016Z,4.03
2022-09-30T01:52:18.187Z,4.00
2022-09-30T01:55:10.678Z,2.70
2022-09-30T01:57:52.745Z,4.03
2022-09-30T02:00:19.509Z,3.33
2022-09-30T02:02:49.111Z,4.15
2022-09-30T02:05:32.584Z,3.42
2022-09-30T02:08:03.801Z,6.28
2022-09-30T02:13:04.422Z,3.03
2022-09-30T02:15:40.245Z,3.42
2022-09-30T02:18:22.501Z,5.65
2022-09-30T02:20:53.164Z,3.30
2022-09-30T02:23:25.807Z,2.40
2022-09-30T02:26:01.657Z,2.47
2022-09-30T02:28:30.276Z,2.70
2022-09-30T02:31:00.829Z,3.17
2022-09-30T02:33:43.032Z,2.83
2022-09-30T02:36:21.212Z,2.63
2022-09-30T02:38:54.608Z,2.83
2022-09-30T02:41:27.051Z,1.95
2022-09-30T02:43:55.685Z,2.80
2022-09-30T02:46:43.650Z,2.45
2022-09-30T02:49:39.012Z,3.72
2022-09-30T02:52:24.135Z,3.40
2022-09-30T02:55:18.691Z,3.92
2022-09-30T02:57:51.028Z,2.55
2022-09-30T03:00:17.856Z,3.53
2022-09-30T03:02:44.336Z,2.58
2022-09-30T03:05:11.773Z,4.68
2022-09-30T03:07:38.533Z,3.58
2022-09-30T03:10:16.818Z,3.50
2022-09-30T03:12:49.057Z,3.72
2022-09-30T03:15:30.712Z,4.20
2022-09-30T03:18:30.315Z,2.25
2022-09-30T03:21:21.596Z,3.00
2022-09-30T03:24:11.049Z,2.08
2022-09-30T03:26:55.118Z,4.53
2022-09-30T03:29:31.645Z,2.30
2022-09-30T03:32:12.499Z,3.35
2022-09-30T03:35:07.049Z,4.20
2022-09-30T03:37:48.028Z,3.15
2022-09-30T03:40:43.632Z,4.38
2022-09-30T03:43:21.213Z,3.47
2022-09-30T03:46:03.037Z,4.25
2022-09-30T03:48:33.334Z,3.38
2022-09-30T03:51:00.668Z,2.83
2022-09-30T03:53:28.461Z,2.42
2022-09-30T03:55:55.080Z,3.67
2022-09-30T03:58:26.055Z,2.13
2022-09-30T04:00:54.243Z,5.63
2022-09-30T04:03:23.337Z,4.07
2022-09-30T04:05:50.058Z,4.38
2022-09-30T04:08:17.081Z,3.85
2022-09-30T04:10:44.006Z,2.50
2022-09-30T04:13:11.307Z,3.95
2022-09-30T04:15:38.230Z,5.07
2022-09-30T04:18:05.325Z,4.78
2022-09-30T04:20:32.334Z,3.33
2022-09-30T04:23:00.329Z,5.93
2022-09-30T04:25:28.082Z,6.75
2022-09-30T04:27:55.284Z,6.45
2022-09-30T04:30:25.573Z,4.35
2022-09-30T04:32:53.792Z,4.68
2022-09-30T04:35:20.433Z,5.25
2022-09-30T04:37:47.459Z,5.05
2022-09-30T04:40:15.972Z,4.95
2022-09-30T04:42:43.198Z,9.05
2022-09-30T04:45:13.584Z,4.75
2022-09-30T04:47:45.815Z,4.83
2022-09-30T04:50:14.020Z,8.45
2022-09-30T04:52:43.814Z,4.65
2022-09-30T04:55:10.877Z,5.05
2022-09-30T04:57:37.616Z,5.72
2022-09-30T05:00:05.121Z,5.07
2022-09-30T05:02:32.067Z,4.18
2022-09-30T05:04:58.462Z,7.13
2022-09-30T05:07:24.884Z,5.13
2022-09-30T05:09:53.176Z,6.03
2022-09-30T05:12:19.549Z,6.82
2022-09-30T05:14:45.943Z,5.35
2022-09-30T05:17:12.377Z,5.97
2022-09-30T05:19:38.783Z,6.30
2022-09-30T05:22:05.260Z,4.65
2022-09-30T05:24:31.726Z,5.38
2022-09-30T05:26:58.174Z,5.05
2022-09-30T05:29:24.616Z,5.45
2022-09-30T05:31:51.099Z,5.80
2022-09-30T05:34:17.575Z,5.05
2022-09-30T05:36:44.262Z,6.72
2022-09-30T05:39:11.523Z,5.13
2022-09-30T05:41:38.349Z,7.13
2022-09-30T05:44:05.326Z,6.53
2022-09-30T05:46:31.797Z,4.32
2022-09-30T05:48:58.236Z,6.93
2022-09-30T05:51:24.654Z,6.40
2022-09-30T05:53:51.937Z,5.80
2022-09-30T05:56:18.745Z,4.97
2022-09-30T05:58:45.165Z,4.18
2022-09-30T06:01:14.570Z,4.40
2022-09-30T06:03:46.645Z,5.22
2022-09-30T06:06:14.033Z,3.95
2022-09-30T06:08:41.277Z,4.38
2022-09-30T06:11:12.881Z,5.22
2022-09-30T06:13:40.757Z,4.85
2022-09-30T06:16:08.475Z,4.13
2022-09-30T06:18:35.581Z,4.07
2022-09-30T06:21:04.630Z,5.20
2022-09-30T06:23:32.281Z,8.43
2022-09-30T06:25:58.720Z,3.60
2022-09-30T06:28:25.383Z,4.65
2022-09-30T06:30:51.813Z,4.30
2022-09-30T06:33:18.375Z,4.90
2022-09-30T06:35:47.234Z,9.57
2022-09-30T06:38:17.325Z,5.15
2022-09-30T06:40:44.938Z,5.55
2022-09-30T06:43:11.561Z,3.28
2022-09-30T06:45:38.413Z,4.22
2022-09-30T06:48:09.018Z,3.60
2022-09-30T06:50:35.983Z,5.28
2022-09-30T06:53:06.281Z,3.67
2022-09-30T06:55:36.473Z,3.73
2022-09-30T06:58:02.903Z,8.68
2022-09-30T07:00:29.325Z,4.20
2022-09-30T07:02:59.097Z,6.30
2022-09-30T07:05:26.403Z,5.43
2022-09-30T07:07:54.059Z,3.95
2022-09-30T07:10:20.697Z,4.70
2022-09-30T07:12:51.944Z,3.75
2022-09-30T07:15:22.156Z,4.80
2022-09-30T07:17:56.727Z,3.13
2022-09-30T07:20:23.574Z,4.15
2022-09-30T07:22:50.095Z,3.60
2022-09-30T07:25:17.372Z,3.20
2022-09-30T07:27:44.520Z,4.43
2022-09-30T07:30:17.098Z,15.02
2022-09-30T07:32:47.584Z,14.80
2022-09-30T07:35:14.557Z,8.27
2022-09-30T07:37:41.010Z,7.15
2022-09-30T07:40:08.523Z,4.38
2022-09-30T07:42:40.246Z,9.20
2022-09-30T07:45:07.392Z,7.18
2022-09-30T07:47:35.760Z,14.55
2022-09-30T07:50:02.261Z,6.35
2022-09-30T07:52:31.603Z,7.60
2022-09-30T07:54:59.485Z,4.38
2022-09-30T07:57:29.861Z,6.65
2022-09-30T08:00:07.965Z,9.25
2022-09-30T08:02:45.907Z,5.32
2022-09-30T08:05:26.470Z,66.30
2022-09-30T08:07:52.927Z,24.88
2022-09-30T08:10:21.364Z,20.02
2022-09-30T08:12:47.862Z,11.30
2022-09-30T08:15:14.394Z,7.40
2022-09-30T08:17:41.338Z,29.13
2022-09-30T08:20:22.083Z,11.95
2022-09-30T08:25:18.514Z,5.38
2022-09-30T08:27:45.167Z,4.43
2022-09-30T08:30:15.017Z,4.95
2022-09-30T08:32:41.638Z,4.55
2022-09-30T08:35:17.684Z,6.03
2022-09-30T08:37:44.163Z,5.45
2022-09-30T08:40:30.604Z,4.47
2022-09-30T08:43:47.470Z,4.35
2022-09-30T08:46:37.557Z,5.25
2022-09-30T08:49:33.192Z,4.30
2022-09-30T08:52:01.728Z,5.70
2022-09-30T08:54:37.822Z,4.88
2022-09-30T08:57:06.615Z,4.20
2022-09-30T08:59:38.431Z,12.93
2022-09-30T09:02:22.994Z,6.90
2022-09-30T09:04:52.650Z,5.43
2022-09-30T09:07:45.208Z,3.42
2022-09-30T09:10:24.098Z,3.92
2022-09-30T09:13:04.069Z,7.22
2022-09-30T09:15:54.154Z,9.10
2022-09-30T09:18:42.552Z,5.22
2022-09-30T09:21:20.033Z,6.82
2022-09-30T09:23:48.750Z,3.58
2022-09-30T09:26:16.113Z,4.35
2022-09-30T09:29:00.101Z,2.97
2022-09-30T09:31:27.103Z,4.57
2022-09-30T09:33:59.763Z,5.43
2022-09-30T09:36:43.416Z,5.30
2022-09-30T09:39:15.846Z,5.28
2022-09-30T09:41:47.001Z,4.03
2022-09-30T09:46:50.890Z,3.20
2022-09-30T09:49:20.862Z,6.00
2022-09-30T09:51:54.665Z,8.05
2022-09-30T09:54:22.261Z,5.20
2022-09-30T09:56:52.904Z,4.82
2022-09-30T09:59:20.436Z,4.97
2022-09-30T10:01:53.490Z,5.63
2022-09-30T10:04:25.153Z,5.28
2022-09-30T10:06:56.244Z,8.50
2022-09-30T10:09:29.830Z,4.97
2022-09-30T10:12:05.503Z,4.95
2022-09-30T10:14:57.720Z,4.25
2022-09-30T10:17:33.304Z,5.53
2022-09-30T10:20:01.375Z,6.93
2022-09-30T10:22:30.744Z,4.55
2022-09-30T10:25:20.389Z,5.55
2022-09-30T10:27:50.281Z,5.18
2022-09-30T10:30:35.369Z,6.20
2022-09-30T10:33:06.543Z,5.63
2022-09-30T10:38:00.475Z,5.30
2022-09-30T10:40:29.498Z,6.88
2022-09-30T10:42:56.713Z,5.00
2022-09-30T10:45:29.573Z,5.25
2022-09-30T10:47:56.985Z,5.38
2022-09-30T10:50:27.581Z,6.57
2022-09-30T10:52:58.059Z,7.03
2022-09-30T10:55:54.270Z,4.75
2022-09-30T10:58:44.984Z,7.57
2022-09-30T11:01:28.203Z,5.20
2022-09-30T11:04:24.099Z,5.90
2022-09-30T11:06:58.110Z,6.45
2022-09-30T11:09:37.169Z,5.30
2022-09-30T11:12:30.325Z,5.22
2022-09-30T11:15:11.080Z,6.50
2022-09-30T11:17:50.457Z,7.05
2022-09-30T11:20:27.844Z,5.65
2022-09-30T11:23:11.531Z,3.83
2022-09-30T11:25:49.635Z,3.90
2022-09-30T11:28:32.245Z,4.70
2022-09-30T11:30:58.598Z,11.68
2022-09-30T11:33:42.690Z,8.00
2022-09-30T11:36:42.264Z,6.65
2022-09-30T11:39:25.000Z,9.55
2022-09-30T11:42:20.329Z,7.00
2022-09-30T11:44:48.253Z,7.70
2022-09-30T11:47:36.156Z,7.53
2022-09-30T11:50:17.372Z,5.70
2022-09-30T11:58:40.386Z,5.43
2022-09-30T12:01:27.456Z,11.25
2022-09-30T12:04:08.415Z,7.15
2022-09-30T12:06:43.578Z,6.60
2022-09-30T12:09:37.251Z,6.00
2022-09-30T12:12:12.428Z,5.95
2022-09-30T12:15:01.069Z,4.70
2022-09-30T12:17:34.107Z,6.85
2022-09-30T12:20:08.557Z,6.35
2022-09-30T12:22:41.689Z,6.95
2022-09-30T12:25:19.699Z,10.02
2022-09-30T12:27:49.464Z,6.53
2022-09-30T12:30:20.461Z,7.70
2022-09-30T12:32:56.154Z,8.68
2022-09-30T12:35:43.376Z,7.63
2022-09-30T12:38:44.204Z,6.18
2022-09-30T12:41:41.488Z,10.68
2022-09-30T12:44:34.300Z,6.07
2022-09-30T12:47:31.689Z,8.93
2022-09-30T12:50:00.677Z,7.75
2022-09-30T12:52:33.926Z,6.07
2022-09-30T12:55:07.328Z,7.40
2022-09-30T12:57:39.997Z,6.45
2022-09-30T13:00:15.809Z,6.95
2022-09-30T13:02:46.165Z,7.00
2022-09-30T13:05:45.086Z,9.00
2022-09-30T13:08:25.115Z,5.10
2022-09-30T13:11:03.485Z,7.53
2022-09-30T13:13:34.024Z,6.45
2022-09-30T13:16:06.732Z,5.75
2022-09-30T13:18:33.248Z,7.18
2022-09-30T13:21:05.589Z,7.32
2022-09-30T13:23:47.020Z,9.32
2022-09-30T13:26:22.699Z,6.65
2022-09-30T13:28:50.236Z,5.43
2022-09-30T13:31:19.750Z,6.95
2022-09-30T13:34:09.175Z,7.40
2022-09-30T13:36:56.675Z,6.40
2022-09-30T13:39:23.075Z,8.30
2022-09-30T13:42:01.224Z,5.60
2022-09-30T13:45:01.885Z,7.68
2022-09-30T13:47:33.669Z,6.57
2022-09-30T13:50:16.206Z,7.60
2022-09-30T13:52:45.756Z,17.42
2022-09-30T13:55:21.515Z,6.32
2022-09-30T13:58:02.171Z,8.20
2022-09-30T14:00:47.916Z,7.90
2022-09-30T14:03:38.658Z,6.68
2022-09-30T14:06:43.777Z,7.35
2022-09-30T14:09:29.671Z,7.20
2022-09-30T14:12:40.969Z,6.85
2022-09-30T14:15:30.672Z,7.43
2022-09-30T14:18:11.142Z,6.85
2022-09-30T14:20:58.360Z,9.82
2022-09-30T14:23:24.935Z,7.95
2022-09-30T14:26:09.780Z,9.48
2022-09-30T14:29:01.160Z,9.43
2022-09-30T14:33:56.523Z,9.93
2022-09-30T14:36:23.206Z,8.98
2022-09-30T14:38:54.709Z,8.70
2022-09-30T14:41:23.277Z,8.82
2022-09-30T14:43:56.511Z,8.57
2022-09-30T14:46:47.056Z,11.48
2022-09-30T14:49:17.207Z,8.80
2022-09-30T14:51:48.200Z,7.85
2022-09-30T14:54:22.197Z,8.93
2022-09-30T14:56:50.610Z,10.27
2022-09-30T14:59:20.695Z,9.88
2022-09-30T15:01:51.217Z,8.75
2022-09-30T15:04:22.800Z,9.35
2022-09-30T15:06:50.968Z,8.85
2022-09-30T15:09:38.716Z,10.38
2022-09-30T15:12:11.030Z,10.18
2022-09-30T15:14:53.951Z,10.02
2022-09-30T15:17:25.023Z,13.95
2022-09-30T15:19:51.518Z,9.45
2022-09-30T15:22:20.081Z,9.18
2022-09-30T15:24:48.156Z,10.57
2022-09-30T15:27:26.569Z,10.13
2022-09-30T15:30:21.729Z,12.82
2022-09-30T15:32:51.933Z,10.50
2022-09-30T15:35:30.917Z,9.93
2022-09-30T15:38:19.290Z,12.88
2022-09-30T15:40:50.477Z,11.07
2022-09-30T15:45:59.610Z,13.77
2022-09-30T15:48:26.476Z,16.42
2022-09-30T15:51:03.122Z,13.50
2022-09-30T15:53:33.405Z,17.27
2022-09-30T15:56:22.756Z,15.43
2022-09-30T15:58:59.197Z,12.80
2022-09-30T16:01:42.594Z,14.00
2022-09-30T16:04:26.481Z,11.00
2022-09-30T16:07:26.269Z,11.50
2022-09-30T16:09:57.733Z,10.75
2022-09-30T16:12:28.110Z,12.30
2022-09-30T16:15:07.324Z,10.05
2022-09-30T16:17:37.844Z,12.82
2022-09-30T16:20:08.481Z,14.00
2022-09-30T16:22:40.791Z,11.55
2022-09-30T16:25:31.625Z,11.85
2022-09-30T16:28:02.362Z,12.93
2022-09-30T16:30:30.016Z,9.57
2022-09-30T16:32:59.336Z,11.00
2022-09-30T16:35:28.474Z,11.73
2022-09-30T16:38:03.356Z,17.08
2022-09-30T16:40:31.482Z,9.55
2022-09-30T16:42:58.954Z,9.68
2022-09-30T16:45:27.209Z,8.65
2022-09-30T16:47:54.287Z,14.82
2022-09-30T16:51:10.968Z,10.20
2022-09-30T16:53:37.499Z,8.77
2022-09-30T16:56:04.722Z,11.52
2022-09-30T16:58:31.732Z,11.75
2022-09-30T17:01:00.418Z,11.65
2022-09-30T17:03:27.079Z,10.65
2022-09-30T17:05:54.033Z,11.02
2022-09-30T17:08:21.642Z,13.80
2022-09-30T17:10:49.974Z,11.73
2022-09-30T17:13:18.173Z,10.98
2022-09-30T17:15:51.925Z,13.60
2022-09-30T17:18:19.490Z,10.25
2022-09-30T17:20:52.388Z,10.50
2022-09-30T17:23:24.109Z,12.90
2022-09-30T17:25:51.607Z,12.52
2022-09-30T17:28:18.140Z,11.05
2022-09-30T17:30:47.734Z,8.82
2022-09-30T17:33:15.012Z,9.43
2022-09-30T17:35:41.510Z,8.77
2022-09-30T17:38:09.047Z,14.88
2022-09-30T17:40:54.031Z,15.73
2022-09-30T17:43:20.776Z,12.48
2022-09-30T17:45:47.805Z,8.73
2022-09-30T17:48:16.254Z,9.18
2022-09-30T17:50:45.505Z,18.42
2022-09-30T17:53:14.269Z,8.40
2022-09-30T17:55:41.440Z,11.82
2022-09-30T17:58:09.310Z,12.70
2022-09-30T18:00:36.422Z,8.77
2022-09-30T18:03:03.249Z,9.38
2022-09-30T18:05:30.654Z,10.20
2022-09-30T18:07:57.307Z,10.05
2022-09-30T18:10:24.550Z,8.52
2022-09-30T18:12:53.669Z,12.82
2022-09-30T18:15:20.593Z,10.02
2022-09-30T18:17:47.117Z,11.32
2022-09-30T18:20:14.270Z,9.77
2022-09-30T18:22:41.111Z,9.40
2022-09-30T18:25:20.162Z,10.23
2022-09-30T18:27:48.439Z,10.60
2022-09-30T18:30:15.297Z,10.10
2022-09-30T18:32:42.139Z,8.35
2022-09-30T18:35:12.222Z,9.43
2022-09-30T18:37:39.902Z,8.82
2022-09-30T18:40:06.976Z,9.75
2022-09-30T18:42:33.467Z,8.63
2022-09-30T18:44:59.853Z,12.43
2022-09-30T18:47:26.284Z,16.35
2022-09-30T18:49:52.784Z,19.58
2022-09-30T18:52:19.190Z,15.20
2022-09-30T18:54:45.577Z,10.13
2022-09-30T18:57:11.965Z,11.48
2022-09-30T18:59:38.369Z,11.98
2022-09-30T19:02:04.881Z,11.55
2022-09-30T19:04:31.293Z,10.40
2022-09-30T19:06:57.739Z,8.88
2022-09-30T19:09:26.506Z,8.45
2022-09-30T19:11:55.723Z,9.30
2022-09-30T19:14:23.648Z,9.20
2022-09-30T19:16:51.787Z,8.50
2022-09-30T19:19:20.368Z,8.57
2022-09-30T19:21:48.723Z,12.15
2022-09-30T19:24:17.140Z,10.48
2022-09-30T19:26:43.876Z,11.23
2022-09-30T19:29:11.000Z,9.85
2022-09-30T19:31:37.897Z,11.30
2022-09-30T19:34:05.224Z,13.48
2022-09-30T19:36:40.716Z,13.02
2022-09-30T19:39:12.495Z,11.40
2022-09-30T19:41:39.158Z,22.98
2022-09-30T19:44:05.595Z,53.47
2022-09-30T19:46:32.193Z,63.20
2022-09-30T19:48:58.833Z,48.42
2022-09-30T19:51:26.337Z,52.60
2022-09-30T19:54:04.944Z,55.63
2022-09-30T19:56:34.902Z,66.45
2022-09-30T19:59:01.392Z,41.35
2022-09-30T20:01:29.524Z,25.80
2022-09-30T20:03:57.682Z,16.77
2022-09-30T20:06:24.230Z,10.95
2022-09-30T20:08:52.990Z,17.42
2022-09-30T20:11:21.907Z,15.05
2022-09-30T20:14:11.251Z,14.85
2022-09-30T20:16:38.127Z,12.57
2022-09-30T20:19:04.630Z,15.48
2022-09-30T20:21:31.388Z,14.43
2022-09-30T20:23:59.733Z,14.45
2022-09-30T20:26:26.403Z,16.30
2022-09-30T20:28:57.814Z,16.45
2022-09-30T20:31:25.444Z,15.95
2022-09-30T20:33:56.609Z,12.13
2022-09-30T20:36:24.098Z,15.55
2022-09-30T20:38:51.704Z,12.95
2022-09-30T20:41:18.198Z,12.75
2022-09-30T20:43:49.246Z,13.45
2022-09-30T20:46:15.666Z,12.52
2022-09-30T20:48:42.172Z,12.77
2022-09-30T20:51:12.383Z,14.23
2022-09-30T20:53:44.426Z,12.60
2022-09-30T20:56:15.130Z,10.88
2022-09-30T20:58:42.177Z,10.82
2022-09-30T21:01:19.982Z,12.52
2022-09-30T21:03:52.540Z,11.70
2022-09-30T21:06:29.467Z,12.38
2022-09-30T21:08:56.852Z,13.45
2022-09-30T21:11:24.000Z,14.45
2022-09-30T21:13:52.680Z,12.25
2022-09-30T21:16:22.010Z,14.48
2022-09-30T21:18:52.049Z,12.95
2022-09-30T21:21:19.770Z,13.07
2022-09-30T21:23:46.197Z,12.70
2022-09-30T21:26:14.923Z,17.23
2022-09-30T21:28:45.578Z,15.35
2022-09-30T21:31:21.108Z,18.27
2022-09-30T21:33:51.591Z,13.93
2022-09-30T21:36:18.160Z,14.50
2022-09-30T21:38:44.577Z,14.35
2022-09-30T21:41:10.960Z,14.10
2022-09-30T21:43:37.808Z,14.35
2022-09-30T21:46:06.860Z,15.73
2022-09-30T21:48:35.097Z,13.50
2022-09-30T21:51:02.549Z,15.13
2022-09-30T21:53:29.376Z,14.57
2022-09-30T21:55:57.758Z,16.55
2022-09-30T21:58:25.920Z,15.35
2022-09-30T22:00:56.678Z,15.50
2022-09-30T22:03:23.607Z,15.85
2022-09-30T22:05:53.968Z,19.27
2022-09-30T22:08:21.088Z,16.40
2022-09-30T22:10:47.956Z,17.52
2022-09-30T22:13:18.325Z,15.65
2022-09-30T22:15:46.603Z,17.70
2022-09-30T22:18:17.274Z,20.75
2022-09-30T22:20:44.560Z,22.25
2022-09-30T22:23:11.650Z,23.65
2022-09-30T22:25:38.300Z,19.75
2022-09-30T22:28:05.185Z,50.35
2022-09-30T22:30:32.885Z,41.15
2022-09-30T22:33:17.750Z,29.90
2022-09-30T22:36:03.062Z,42.38
2022-09-30T22:38:29.616Z,46.85
2022-09-30T22:40:56.069Z,56.20
2022-09-30T22:43:24.430Z,26.13
2022-09-30T22:46:05.133Z,34.35
2022-09-30T22:48:32.430Z,26.70
2022-09-30T22:50:59.314Z,24.58
2022-09-30T22:53:27.390Z,25.02
2022-09-30T22:55:54.284Z,53.33
2022-09-30T22:58:23.249Z,52.00
2022-09-30T23:00:52.846Z,32.70
2022-09-30T23:03:19.361Z,46.58
2022-09-30T23:05:46.357Z,32.85
2022-09-30T23:08:12.740Z,24.90
2022-09-30T23:10:46.288Z,25.75
2022-09-30T23:13:13.311Z,26.67
2022-09-30T23:15:39.773Z,22.25
2022-09-30T23:18:06.205Z,20.48
2022-09-30T23:20:32.933Z,20.25
2022-09-30T23:22:59.329Z,22.10
2022-09-30T23:25:25.721Z,18.95
2022-09-30T23:27:52.150Z,21.25
2022-09-30T23:30:18.675Z,19.55
2022-09-30T23:32:45.100Z,22.52
2022-09-30T23:35:12.998Z,18.75
2022-09-30T23:37:39.701Z,19.13
2022-09-30T23:40:06.781Z,19.45
2022-09-30T23:42:33.293Z,21.35
2022-09-30T23:44:59.747Z,22.85
2022-09-30T23:47:27.316Z,23.02
2022-09-30T23:49:55.340Z,19.40
2022-09-30T23:52:21.789Z,18.38
2022-09-30T23:54:48.233Z,19.60
2022-09-30T23:57:14.736Z,21.67
2022-09-30T23:59:41.181Z,18.85
